createdAt,value
2017-09-29T00:01:15.755Z,14.90
2017-09-29T00:03:46.222Z,14.90
2017-09-29T00:06:17.645Z,15.00
2017-09-29T00:08:48.053Z,14.90
2017-09-29T00:11:18.802Z,15.00
2017-09-29T00:13:49.697Z,14.90
2017-09-29T00:16:20.366Z,14.90
2017-09-29T00:18:50.745Z,15.00
2017-09-29T00:21:21.541Z,14.90
2017-09-29T00:23:52.060Z,14.90
2017-09-29T00:26:22.384Z,15.00
2017-09-29T00:28:52.663Z,15.10
2017-09-29T00:31:23.715Z,15.10
2017-09-29T00:33:56.121Z,15.00
2017-09-29T00:36:26.709Z,15.00
2017-09-29T00:38:57.470Z,15.00
2017-09-29T00:41:27.971Z,15.00
2017-09-29T00:43:58.482Z,15.00
2017-09-29T07:16:48.351Z,16.30
2017-09-29T07:19:19.203Z,16.40
2017-09-29T07:21:50.926Z,16.40
2017-09-29T07:24:25.175Z,16.40
2017-09-29T07:26:59.596Z,16.50
2017-09-29T07:29:34.540Z,16.50
2017-09-29T07:32:11.623Z,16.40
2017-09-29T07:34:44.286Z,16.60
2017-09-29T07:37:20.419Z,16.50
2017-09-29T07:39:52.818Z,16.50
2017-09-29T07:42:25.325Z,16.50
2017-09-29T07:44:56.020Z,16.50
2017-09-29T07:47:26.855Z,16.60
2017-09-29T07:50:03.275Z,16.70
2017-09-29T07:52:34.093Z,16.80
2017-09-29T07:55:06.845Z,17.00
2017-09-29T07:57:43.558Z,17.00
2017-09-29T08:00:16.719Z,17.00
2017-09-29T08:02:47.862Z,17.10
2017-09-29T08:05:21.317Z,17.20
2017-09-29T08:07:53.504Z,17.10
2017-09-29T08:10:25.428Z,17.10
2017-09-29T08:12:57.257Z,17.30
2017-09-29T08:15:29.185Z,17.30
2017-09-29T08:17:59.597Z,17.50
2017-09-29T08:20:32.514Z,17.50
2017-09-29T08:23:03.363Z,17.60
2017-09-29T08:25:35.648Z,17.60
2017-09-29T08:28:08.752Z,17.60
2017-09-29T08:30:43.933Z,17.60
2017-09-29T08:33:15.964Z,17.70
2017-09-29T08:35:48.417Z,17.80
2017-09-29T08:38:24.323Z,17.80
2017-09-29T08:40:56.438Z,17.70
2017-09-29T08:43:27.320Z,17.70
2017-09-29T08:45:58.106Z,17.70
2017-09-29T08:48:30.217Z,17.70
2017-09-29T08:51:00.519Z,17.80
2017-09-29T08:53:30.952Z,17.90
2017-09-29T08:56:01.525Z,17.90
2017-09-29T08:58:31.775Z,18.10
2017-09-29T09:01:02.016Z,18.20
2017-09-29T09:03:33.074Z,18.20
2017-09-29T09:06:03.690Z,18.30
2017-09-29T09:08:34.104Z,18.20
2017-09-29T09:11:05.672Z,18.10
2017-09-29T09:13:37.850Z,18.20
2017-09-29T09:16:08.536Z,18.20
2017-09-29T09:18:39.723Z,18.30
2017-09-29T09:21:12.860Z,18.30
2017-09-29T09:23:45.538Z,18.30
2017-09-29T09:26:19.629Z,18.60
2017-09-29T09:28:56.425Z,18.60
2017-09-29T09:31:32.665Z,18.70
2017-09-29T09:34:11.366Z,18.70
2017-09-29T09:36:42.167Z,18.60
2017-09-29T09:39:19.463Z,18.50
2017-09-29T09:41:52.700Z,18.50
2017-09-29T09:44:24.047Z,18.40
2017-09-29T09:46:54.603Z,18.50
2017-09-29T09:49:26.056Z,18.50
2017-09-29T09:51:57.792Z,18.60
2017-09-29T09:54:28.039Z,18.60
2017-09-29T09:56:58.452Z,18.60
2017-09-29T09:59:28.659Z,18.70
2017-09-29T10:01:58.901Z,18.80
2017-09-29T10:04:29.639Z,18.80
2017-09-29T10:06:59.957Z,18.80
2017-09-29T10:09:30.115Z,18.80
2017-09-29T10:12:01.325Z,18.70
2017-09-29T10:14:31.807Z,18.70
2017-09-29T10:17:02.886Z,18.60
2017-09-29T10:19:33.104Z,18.80
2017-09-29T10:22:03.369Z,19.00
2017-09-29T10:24:34.418Z,19.10
2017-09-29T10:27:04.727Z,19.00
2017-09-29T10:29:35.699Z,19.00
2017-09-29T10:32:06.430Z,19.00
2017-09-29T10:34:38.304Z,19.00
2017-09-29T10:37:08.962Z,19.00
2017-09-29T10:39:39.289Z,19.10
2017-09-29T10:42:09.663Z,19.00
2017-09-29T10:44:41.328Z,19.10
2017-09-29T10:47:11.923Z,19.10
2017-09-29T10:49:43.715Z,19.30
2017-09-29T10:52:14.264Z,19.30
2017-09-29T10:54:44.513Z,19.40
2017-09-29T10:57:14.868Z,19.50
2017-09-29T10:59:45.306Z,19.30
2017-09-29T11:02:15.848Z,19.30
2017-09-29T11:04:46.051Z,19.40
2017-09-29T11:07:16.529Z,19.40
2017-09-29T11:09:47.023Z,19.40
2017-09-29T11:12:18.465Z,19.50
2017-09-29T11:14:48.723Z,19.70
2017-09-29T11:17:20.227Z,19.80
2017-09-29T11:19:53.637Z,19.80
2017-09-29T11:22:24.798Z,20.00
2017-09-29T11:24:58.890Z,19.90
2017-09-29T11:27:31.714Z,20.00
2017-09-29T11:30:02.871Z,20.10
2017-09-29T11:32:35.579Z,20.30
2017-09-29T11:35:07.348Z,20.20
2017-09-29T11:37:39.715Z,20.20
2017-09-29T11:42:56.398Z,20.20
2017-09-29T11:45:31.066Z,20.30
2017-09-29T11:48:02.970Z,20.00
2017-09-29T11:50:41.009Z,20.00
2017-09-29T11:53:18.522Z,20.00
2017-09-29T11:55:50.471Z,19.80
2017-09-29T11:58:23.731Z,19.80
2017-09-29T12:00:59.788Z,19.70
2017-09-29T12:03:33.770Z,19.60
2017-09-29T12:06:04.240Z,19.60
2017-09-29T12:08:39.400Z,19.70
2017-09-29T12:11:14.048Z,19.60
2017-09-29T12:13:47.403Z,19.60
2017-09-29T12:16:26.042Z,19.50
2017-09-29T12:19:04.150Z,19.40
2017-09-29T12:21:36.146Z,19.50
2017-09-29T12:24:10.538Z,19.50
2017-09-29T12:26:50.760Z,19.50
2017-09-29T12:29:40.267Z,19.40
2017-09-29T12:32:16.251Z,19.50
2017-09-29T12:34:53.057Z,19.40
2017-09-29T12:37:28.469Z,19.50
2017-09-29T12:40:05.904Z,19.60
2017-09-29T12:42:47.530Z,19.60
2017-09-29T12:45:21.460Z,19.60
2017-09-29T12:48:51.544Z,19.60
2017-09-29T12:52:09.376Z,19.70
2017-09-29T12:54:44.921Z,20.00
2017-09-29T12:57:33.589Z,20.00
2017-09-29T13:08:31.737Z,20.20
2017-09-29T13:14:04.240Z,21.00
2017-09-29T13:19:39.935Z,21.40
2017-09-29T13:31:06.716Z,21.20
2017-09-29T13:42:12.116Z,20.90
2017-09-29T13:45:06.233Z,20.90
2017-09-29T13:50:50.452Z,20.90
2017-09-29T13:56:25.081Z,20.50
2017-09-29T14:02:10.460Z,20.50
2017-09-29T14:16:02.004Z,20.80
2017-09-29T14:18:46.868Z,20.80
2017-09-29T14:35:05.686Z,20.90
2017-09-29T14:46:57.851Z,21.20
2017-09-29T14:49:44.434Z,21.20
2017-09-29T15:12:22.343Z,20.80
2017-09-29T15:15:21.386Z,20.70
2017-09-29T15:26:55.567Z,20.80
2017-09-29T15:32:45.157Z,20.60
2017-09-29T15:50:22.912Z,20.40
2017-09-29T16:01:58.418Z,20.20
2017-09-29T16:04:46.049Z,20.50
2017-09-29T16:19:19.730Z,20.30
2017-09-29T16:22:13.138Z,20.30
2017-09-29T16:30:57.771Z,20.10
2017-09-29T16:33:56.895Z,20.10
2017-09-29T16:47:03.312Z,19.90
2017-09-29T17:03:22.947Z,19.60
2017-09-29T17:45:07.426Z,18.80
2017-09-29T17:47:38.608Z,18.80
2017-09-29T17:50:09.863Z,18.80
2017-09-29T17:52:45.347Z,18.70
2017-09-29T17:55:15.634Z,18.60
2017-09-29T17:57:46.170Z,18.60
2017-09-29T18:00:16.466Z,18.60
2017-09-29T18:02:47.664Z,18.50
2017-09-29T18:05:19.466Z,18.50
2017-09-29T18:07:50.622Z,18.50
2017-09-29T18:10:21.318Z,18.50
2017-09-29T18:12:56.414Z,18.40
2017-09-29T18:15:27.517Z,18.40
2017-09-29T18:18:10.194Z,18.30
2017-09-29T18:20:41.530Z,18.30
2017-09-29T18:23:11.829Z,18.30
2017-09-29T18:25:58.578Z,18.30
2017-09-29T18:28:29.047Z,18.30
2017-09-29T18:31:02.984Z,18.20
2017-09-29T18:33:34.834Z,18.20
2017-09-29T18:36:06.110Z,18.20
2017-09-29T18:38:36.334Z,18.10
2017-09-29T18:41:06.490Z,18.10
2017-09-29T18:43:44.045Z,18.00
2017-09-29T18:46:14.300Z,18.00
2017-09-29T18:48:45.103Z,17.90
2017-09-29T18:51:16.658Z,17.90
2017-09-29T18:53:47.377Z,18.00
2017-09-29T18:56:18.286Z,17.90
2017-09-29T18:58:48.592Z,17.90
2017-09-29T19:01:20.797Z,17.80
2017-09-29T19:03:54.692Z,17.80
2017-09-29T19:06:26.243Z,17.80
2017-09-29T19:08:57.117Z,17.80
2017-09-29T19:11:36.196Z,17.70
2017-09-29T19:14:07.058Z,17.70
2017-09-29T19:16:41.095Z,17.60
2017-09-29T19:19:13.239Z,17.60
2017-09-29T19:21:47.755Z,17.50
2017-09-29T19:24:18.937Z,17.50
2017-09-29T19:26:49.740Z,17.40
2017-09-29T19:29:20.838Z,17.40
2017-09-29T19:31:52.393Z,17.30
2017-09-29T19:34:29.174Z,17.20
2017-09-29T19:36:59.969Z,17.30
2017-09-29T19:39:30.951Z,17.30
2017-09-29T19:42:03.642Z,17.30
2017-09-29T19:44:34.741Z,17.30
2017-09-29T19:47:05.401Z,17.20
2017-09-29T19:49:38.303Z,17.20
2017-09-29T19:52:10.692Z,17.20
2017-09-29T19:54:41.611Z,17.20
2017-09-29T19:57:19.410Z,17.20
2017-09-29T19:59:54.048Z,17.20
2017-09-29T20:02:24.349Z,17.20
2017-09-29T20:04:56.024Z,17.20
2017-09-29T20:07:27.354Z,17.10
2017-09-29T20:09:57.580Z,17.10
2017-09-29T20:12:28.560Z,17.00
2017-09-29T20:15:01.412Z,17.00
2017-09-29T20:17:32.535Z,17.00
2017-09-29T20:20:07.355Z,17.00
2017-09-29T20:22:37.618Z,16.90
2017-09-29T20:25:08.588Z,17.00
2017-09-29T20:27:43.443Z,16.90
2017-09-29T20:30:21.101Z,16.90
2017-09-29T20:32:52.390Z,16.90
2017-09-29T20:35:27.117Z,16.90
2017-09-29T20:37:58.262Z,16.80
2017-09-29T20:40:28.454Z,16.90
2017-09-29T20:42:59.103Z,16.90
2017-09-29T20:45:29.590Z,17.00
2017-09-29T20:47:59.756Z,17.20
2017-09-29T20:50:32.967Z,17.00
2017-09-29T20:53:05.420Z,17.00
2017-09-29T20:55:35.718Z,17.00
2017-09-29T20:58:05.958Z,17.00
2017-09-29T21:00:37.371Z,17.10
2017-09-29T21:03:08.295Z,17.10
2017-09-29T21:05:39.647Z,17.10
2017-09-29T21:08:15.348Z,17.10
2017-09-29T21:10:46.916Z,17.20
2017-09-29T21:13:17.917Z,17.20
2017-09-29T21:15:49.452Z,17.20
2017-09-29T21:18:20.555Z,17.20
2017-09-29T21:20:50.785Z,17.30
2017-09-29T21:23:20.978Z,17.20
2017-09-29T21:25:51.471Z,17.20
2017-09-29T21:28:22.456Z,17.40
2017-09-29T21:30:53.274Z,17.40
2017-09-29T21:33:23.970Z,17.40
2017-09-29T21:35:54.729Z,17.50
2017-09-29T21:38:25.785Z,17.60
2017-09-29T21:40:56.843Z,17.80
2017-09-29T21:43:27.284Z,17.80
2017-09-29T21:45:58.138Z,17.80
2017-09-29T21:48:29.391Z,17.90
2017-09-29T21:50:59.675Z,17.90
2017-09-29T21:53:31.818Z,18.00
2017-09-29T21:56:02.525Z,18.00
2017-09-29T21:58:32.886Z,18.00
2017-09-29T22:01:03.638Z,18.00
2017-09-29T22:03:34.213Z,18.00
2017-09-29T22:06:07.326Z,18.00
2017-09-29T22:08:37.829Z,18.00
2017-09-29T22:11:09.565Z,18.00
2017-09-29T22:13:40.224Z,17.90
2017-09-29T22:16:10.631Z,17.80
2017-09-29T22:18:45.367Z,17.80
2017-09-29T22:21:15.812Z,17.80
2017-09-29T22:23:47.933Z,17.80
2017-09-29T22:26:18.867Z,17.70
2017-09-29T22:28:49.382Z,17.60
2017-09-29T22:31:20.135Z,17.60
2017-09-29T22:33:50.649Z,17.70
2017-09-29T22:36:21.137Z,17.80
2017-09-29T22:38:52.128Z,17.80
2017-09-29T22:41:22.509Z,17.70
2017-09-29T22:43:53.755Z,17.80
2017-09-29T22:46:24.421Z,17.80
2017-09-29T22:48:55.164Z,17.80
2017-09-29T22:51:25.566Z,17.60
2017-09-29T22:53:56.289Z,17.50
2017-09-29T22:56:26.626Z,17.50
2017-09-29T22:58:56.888Z,17.70
2017-09-29T23:01:27.521Z,17.70
2017-09-29T23:03:58.192Z,17.60
2017-09-29T23:06:29.906Z,17.70
2017-09-29T23:09:00.858Z,17.70
2017-09-29T23:11:31.258Z,17.70
2017-09-29T23:14:02.497Z,17.60
2017-09-29T23:16:34.443Z,17.60
2017-09-29T23:19:05.201Z,17.60
2017-09-29T23:21:37.204Z,17.70
2017-09-29T23:24:08.570Z,17.70
2017-09-29T23:26:39.076Z,17.70
2017-09-29T23:29:09.550Z,17.70
2017-09-29T23:31:40.627Z,17.70
2017-09-29T23:34:11.491Z,17.70
2017-09-29T23:36:41.721Z,17.60
2017-09-29T23:39:12.322Z,17.70
2017-09-29T23:41:43.427Z,17.70
2017-09-29T23:44:14.222Z,17.60
2017-09-29T23:46:44.325Z,17.60
2017-09-29T23:49:14.594Z,17.80
2017-09-29T23:51:44.718Z,17.70
2017-09-29T23:54:16.699Z,17.70
2017-09-29T23:56:46.812Z,17.80
2017-09-29T23:59:17.749Z,17.70
